NCAR-RAP Real-Time Weather Data

Output produced by METARs form (20 February 2019  17:33 UTC)
found at http://weather.rap.ucar.edu/surface/
 
RJFO 201300Z 32005KT 9999 FEW035 SCT/// 08/02 Q1023
RJFO 201200Z 31006KT 270V350 9999 FEW035 SCT/// 08/02 Q1022
RJFO 201100Z 34004KT 9999 FEW030 SCT/// 08/03 Q1022
RJFO 201000Z 34008KT 310V010 9999 FEW030 SCT/// 09/04 Q1022
RJFO 200900Z 34007KT 9999 FEW030 10/05 Q1021
RJFO 200800Z 34011KT 9999 FEW025 BKN030 BKN040 11/05 Q1020
RJFO 200700Z 33013KT 9999 FEW030 SCT035 BKN045 12/06 Q1020
RJFO 200600Z 32016KT 290V350 9999 FEW035 SCT045 13/05 Q1019
RJFO 200524Z 29015G25KT 260V320 9999 FEW030 SCT045 14/05 Q1019 RMK 1CU030 4CU045 A3009
RJFO 200500Z 30015KT 270V330 9999 FEW030 SCT045 14/05 Q1019
RJFO 200400Z 32013KT 280V360 9999 FEW020 SCT035 BKN050 14/05 Q1019
RJFO 200300Z 30013KT 9999 FEW020 SCT040 15/05 Q1019
RJFO 200200Z 30010KT 9999 FEW020 BKN030 14/07 Q1019
RJFO 200100Z 30011KT 250V340 9999 FEW020 SCT030 14/08 Q1019
RJFO 200000Z 30011KT 9999 FEW015 SCT030 13/07 Q1019
RJFO 192300Z 31010KT 9999 FEW020 BKN030 BKN040 12/07 Q1019
RJFO 192200Z 31006KT 270V340 9999 FEW020 BKN030 12/08 Q1018
RJFO 191300Z 32007KT 9999 FEW020 SCT035 BKN045 15/13 Q1016
RJFO 191200Z 32010KT 9999 FEW020 SCT035 BKN045 15/13 Q1016
RJFO 191100Z 32007KT 280V360 9999 FEW020 SCT035 BKN040 15/14 Q1014
RJFO 191000Z 34008KT 9999 FEW015 SCT030 BKN040 15/15 Q1013
RJFO 190900Z 35005KT 310V020 9999 FEW015 SCT040 15/15 Q1012
RJFO 190800Z VRB06KT 9999 FEW006 SCT030 BKN/// 17/16 Q1012
RJFO 190700Z 07004KT 360V110 9999 FEW005 SCT030 BKN/// 15/15 Q1011
RJFO 190600Z VRB03KT 9999 FEW008 SCT020 BKN/// 16/15 Q1011
RJFO 190500Z 19006KT 9999 FEW005 SCT025 BKN040 16/15 Q1011
RJFO 190400Z 18008KT 7000 -SHRA FEW002 SCT020 BKN030 15/15 Q1011
RJFO 190300Z 20008KT 8000 -SHRA FEW003 SCT015 BKN030 15/14 Q1013
RJFO 190200Z 18008KT 6000 -SHRA FEW004 SCT025 BKN040 13/13 Q1014
RJFO 190150Z 16011KT 3000 -SHRA BR FEW003 SCT025 BKN040 13/13 Q1014 RMK 1ST003 4CU025 5CU040 A2995
RJFO 190133Z 15015KT 5000 -SHRA BR FEW004 SCT010 BKN025 13/13 Q1015 RMK 2ST004 3ST010 5CU025 A2998
RJFO 190119Z 16014KT 2000 -SHRA BR FEW003 SCT004 BKN010 13/13 Q1015 RMK 1ST003 4ST004 6ST010 A2998
RJFO 190100Z 14008KT 100V170 1600 SHRA BR FEW003 SCT006 BKN010 12/12 Q1015
RJFO 190031Z 12006KT 1600 SHRA BR FEW003 SCT004 BKN010 12/12 Q1016 RMK 1ST003 3ST004 7ST010 A3001
RJFO 190020Z VRB02KT 1400 R01///// +SHRA BR FEW003 SCT004 BKN005 11/11 Q1016 RMK 1ST003 4ST004 6ST005 A3002
RJFO 190000Z VRB02KT 1100 R01///// -SHRA BR FEW002 SCT004 BKN006 11/11 Q1016
RJFO 182350Z 07004KT 1600 SHRA BR FEW002 BKN003 BKN004 11/11 Q1017 RMK 2ST002 5ST003 7ST004 A3004
RJFO 182321Z 08006KT 1500 R01///// -SHRA BR FEW002 BKN003 BKN004 10/10 Q1017 RMK 2ST002 5ST003 7ST004 A3005
RJFO 182308Z 08006KT 1200 R01///// -SHRA BR FEW002 SCT003 BKN004 10/10 Q1017 RMK 2ST002 4ST003 6ST004 A3005
RJFO 182300Z 06005KT 1200 R01///// SHRA BR FEW002 SCT003 BKN004 10/10 Q1018
RJFO 182249Z 06004KT 1100 R01///// -SHRA BR FEW002 SCT003 BKN004 11/11 Q1018 RMK 1ST002 4ST003 6ST004 A3007
RJFO 182231Z VRB02KT 1100 R01///// SHRA BR FEW001 BKN003 BKN004 11/11 Q1018 RMK 1ST001 5ST003 7ST004 A3007
RJFO 182211Z 22005KT 160V270 1600 -SHRA BR FEW002 BKN003 BKN004 11/11 Q1018 RMK 2ST002 5ST003 7ST004 A3009
RJFO 182200Z 15004KT 1600 SHRA BR FEW002 BKN003 BKN004 11/11 Q1018
RJFO 182142Z 21005KT 170V230 1500 R01///// SHRA BR FEW002 BKN003 BKN004 11/11 Q1019 RMK 1ST002 5ST003 7ST004 A3010
RJFO 181300Z 25002KT 9999 -SHRA FEW030 BKN035 09/05 Q1024
RJFO 181200Z 26002KT 9999 FEW030 BKN035 BKN070 09/05 Q1024
RJFO 181100Z 27003KT 9999 -RA FEW030 BKN080 09/04 Q1024
RJFO 181000Z VRB02KT 9999 -RA FEW030 BKN080 BKN110 09/04 Q1024
RJFO 180900Z VRB01KT 9999 FEW030 BKN090 10/03 Q1024
RJFO 180800Z VRB02KT 9999 FEW030 BKN100 09/02 Q1024
RJFO 180700Z VRB02KT CAVOK 10/01 Q1023
RJFO 180600Z 07006KT CAVOK 10/02 Q1023